Eye Of The Wind — GWAK — position and weather

sailwx.info

Track history (hours):
 
Tides and Currents Weather Stations Pressure Air Temp Water Temp Dewpoint Dewpoint Depression Visibility Wind Speed Wind Dir Waves Ship Positions

Eye Of The Wind

Last reported at 2017-Oct-17 06:45 UTC. Time now 2017-Oct-19 03:24 UTC.
Position N 37°20' W 000°52'.

Length 33 m; draft 2.8 m.

Type: Sailing vessel. MMSI: 233789000.

Date/timePositionNaut miles runAvg speedWind from/ knotsBaromVisibWave heightAir tempDewpointWater temp
2017-Oct-17 06:45N 37°20' W 000°52'1 3.2
2017-Oct-17 06:25N 37°21' W 000°52'3 2.9
2017-Oct-17 05:21N 37°23' W 000°49'1 3.4
2017-Oct-17 04:58N 37°24' W 000°48'2 3.6
2017-Oct-17 04:30N 37°25' W 000°46'2 3.1
2017-Oct-17 04:00N 37°26' W 000°45'10 3.4
2017-Oct-17 01:00N 37°34' W 000°35'2 3.4
2017-Oct-17 00:29N 37°35' W 000°34'2 3.1
2017-Oct-16 23:59N 37°36' W 000°32'2 3.8
2017-Oct-16 23:29N 37°38' W 000°31'2 4.0
2017-Oct-16 23:00N 37°39' W 000°30'2 4.5
2017-Oct-16 22:30N 37°41' W 000°28'  
2017-Oct-14 08:23N 39°46' E 002°34'3 6.6
2017-Oct-14 07:59N 39°47' E 002°38'  
2017-Oct-09 15:31N 39°49' E 002°41'0 0.4
2017-Oct-09 15:22N 39°49' E 002°41'2 0.3
2017-Oct-09 10:04N 39°48' E 002°42'0 0.0
2017-Oct-08 15:47N 39°48' E 002°42'0 0.0
2017-Oct-08 15:25N 39°48' E 002°42'0 0.0
2017-Oct-08 14:52N 39°48' E 002°42'0 0.0
2017-Oct-08 14:30N 39°48' E 002°42'0 0.0
2017-Oct-08 13:59N 39°48' E 002°42'0 0.0
2017-Oct-08 12:20N 39°48' E 002°42'0 0.0
2017-Oct-08 11:59N 39°48' E 002°42'0 0.0
2017-Oct-08 11:23N 39°48' E 002°42'0 0.0
2017-Oct-08 10:59N 39°48' E 002°42'0 0.0
2017-Oct-08 10:30N 39°48' E 002°42'0 0.0
2017-Oct-08 09:59N 39°48' E 002°42'1 1.6
2017-Oct-08 09:10N 39°48' E 002°40'1 7.0
2017-Oct-08 09:00N 39°47' E 002°39'22 0.9
2017-Oct-07 08:38N 39°27' E 002°28'1 4.7
2017-Oct-07 08:26N 39°27' E 002°29'2 5.6
2017-Oct-07 08:00N 39°26' E 002°31'3 5.9
2017-Oct-07 07:30N 39°24' E 002°35'3 6.2
2017-Oct-07 07:00N 39°22' E 002°38'  
Track history (hours):
 
Tides and Currents Weather Stations Pressure Air Temp Water Temp Dewpoint Dewpoint Depression Visibility Wind Speed Wind Dir Waves Ship Positions

Eye Of The Wind

Last reported at 2017-Oct-17 06:45 UTC. Time now 2017-Oct-19 03:24 UTC.
Position N 37°20' W 000°52'.

Length 33 m; draft 2.8 m.

Type: Sailing vessel. MMSI: 233789000.

Date/timePositionNaut miles runAvg speedWind from/ knotsBaromVisibWave heightAir tempDewpointWater temp
2017-Oct-17 06:45N 37°20' W 000°52'1 3.2
2017-Oct-17 06:25N 37°21' W 000°52'3 2.9
2017-Oct-17 05:21N 37°23' W 000°49'1 3.4
2017-Oct-17 04:58N 37°24' W 000°48'2 3.6
2017-Oct-17 04:30N 37°25' W 000°46'2 3.1
2017-Oct-17 04:00N 37°26' W 000°45'10 3.4
2017-Oct-17 01:00N 37°34' W 000°35'2 3.4
2017-Oct-17 00:29N 37°35' W 000°34'2 3.1
2017-Oct-16 23:59N 37°36' W 000°32'2 3.8
2017-Oct-16 23:29N 37°38' W 000°31'2 4.0
2017-Oct-16 23:00N 37°39' W 000°30'2 4.5
2017-Oct-16 22:30N 37°41' W 000°28'  
2017-Oct-14 08:23N 39°46' E 002°34'3 6.6
2017-Oct-14 07:59N 39°47' E 002°38'  
2017-Oct-09 15:31N 39°49' E 002°41'0 0.4
2017-Oct-09 15:22N 39°49' E 002°41'2 0.3
2017-Oct-09 10:04N 39°48' E 002°42'0 0.0
2017-Oct-08 15:47N 39°48' E 002°42'0 0.0
2017-Oct-08 15:25N 39°48' E 002°42'0 0.0
2017-Oct-08 14:52N 39°48' E 002°42'0 0.0
2017-Oct-08 14:30N 39°48' E 002°42'0 0.0
2017-Oct-08 13:59N 39°48' E 002°42'0 0.0
2017-Oct-08 12:20N 39°48' E 002°42'0 0.0
2017-Oct-08 11:59N 39°48' E 002°42'0 0.0
2017-Oct-08 11:23N 39°48' E 002°42'0 0.0
2017-Oct-08 10:59N 39°48' E 002°42'0 0.0
2017-Oct-08 10:30N 39°48' E 002°42'0 0.0
2017-Oct-08 09:59N 39°48' E 002°42'1 1.6
2017-Oct-08 09:10N 39°48' E 002°40'1 7.0
2017-Oct-08 09:00N 39°47' E 002°39'22 0.9
2017-Oct-07 08:38N 39°27' E 002°28'1 4.7
2017-Oct-07 08:26N 39°27' E 002°29'2 5.6
2017-Oct-07 08:00N 39°26' E 002°31'3 5.9
2017-Oct-07 07:30N 39°24' E 002°35'3 6.2
2017-Oct-07 07:00N 39°22' E 002°38'  

Dump ship's entire track history